sensor_id;sensor_type;location;lat;lon;timestamp;P1;durP1;ratioP1;P2;durP2;ratioP2
16262;SDS011;8239;48.594;8.598;2023-04-08T00:01:37;6.37;;;4.97;;
16262;SDS011;8239;48.594;8.598;2023-04-08T00:04:04;5.43;;;4.77;;
16262;SDS011;8239;48.594;8.598;2023-04-08T00:06:33;5.90;;;5.00;;
16262;SDS011;8239;48.594;8.598;2023-04-08T00:09:01;8.13;;;4.80;;
16262;SDS011;8239;48.594;8.598;2023-04-08T00:11:29;5.77;;;4.93;;
16262;SDS011;8239;48.594;8.598;2023-04-08T00:13:56;4.93;;;4.43;;
16262;SDS011;8239;48.594;8.598;2023-04-08T00:16:25;4.90;;;3.93;;
16262;SDS011;8239;48.594;8.598;2023-04-08T00:18:52;5.43;;;4.70;;
16262;SDS011;8239;48.594;8.598;2023-04-08T00:21:19;5.73;;;4.00;;
16262;SDS011;8239;48.594;8.598;2023-04-08T00:23:47;5.23;;;4.30;;
16262;SDS011;8239;48.594;8.598;2023-04-08T00:26:14;5.27;;;4.77;;
16262;SDS011;8239;48.594;8.598;2023-04-08T00:28:43;4.40;;;4.00;;
16262;SDS011;8239;48.594;8.598;2023-04-08T00:31:10;5.77;;;4.20;;
16262;SDS011;8239;48.594;8.598;2023-04-08T00:33:38;6.03;;;4.10;;
16262;SDS011;8239;48.594;8.598;2023-04-08T00:36:05;5.53;;;4.20;;
16262;SDS011;8239;48.594;8.598;2023-04-08T00:38:32;5.43;;;4.40;;
16262;SDS011;8239;48.594;8.598;2023-04-08T00:40:59;4.30;;;3.90;;
16262;SDS011;8239;48.594;8.598;2023-04-08T00:43:26;53.97;;;5.67;;
16262;SDS011;8239;48.594;8.598;2023-04-08T00:45:54;26.47;;;5.23;;
16262;SDS011;8239;48.594;8.598;2023-04-08T00:48:22;7.57;;;4.90;;
16262;SDS011;8239;48.594;8.598;2023-04-08T00:50:49;5.30;;;4.67;;
16262;SDS011;8239;48.594;8.598;2023-04-08T00:53:16;6.60;;;4.77;;
16262;SDS011;8239;48.594;8.598;2023-04-08T00:55:45;7.03;;;5.17;;
16262;SDS011;8239;48.594;8.598;2023-04-08T00:58:12;6.93;;;4.70;;
16262;SDS011;8239;48.594;8.598;2023-04-08T01:00:41;5.57;;;4.63;;
16262;SDS011;8239;48.594;8.598;2023-04-08T01:03:15;4.77;;;4.13;;
16262;SDS011;8239;48.594;8.598;2023-04-08T01:05:49;5.43;;;4.50;;
16262;SDS011;8239;48.594;8.598;2023-04-08T01:08:22;5.60;;;4.50;;
16262;SDS011;8239;48.594;8.598;2023-04-08T01:10:52;5.33;;;3.97;;
16262;SDS011;8239;48.594;8.598;2023-04-08T01:13:21;4.87;;;4.10;;
16262;SDS011;8239;48.594;8.598;2023-04-08T01:15:51;4.37;;;3.77;;
16262;SDS011;8239;48.594;8.598;2023-04-08T01:18:21;4.70;;;3.70;;
16262;SDS011;8239;48.594;8.598;2023-04-08T01:20:49;4.47;;;4.00;;
16262;SDS011;8239;48.594;8.598;2023-04-08T01:23:17;4.97;;;4.30;;
16262;SDS011;8239;48.594;8.598;2023-04-08T01:25:52;5.27;;;4.03;;
16262;SDS011;8239;48.594;8.598;2023-04-08T01:28:19;4.30;;;3.90;;
16262;SDS011;8239;48.594;8.598;2023-04-08T01:30:52;5.10;;;4.03;;
16262;SDS011;8239;48.594;8.598;2023-04-08T01:33:20;6.50;;;4.77;;
16262;SDS011;8239;48.594;8.598;2023-04-08T01:35:49;5.27;;;4.70;;
16262;SDS011;8239;48.594;8.598;2023-04-08T01:38:18;6.87;;;4.97;;
16262;SDS011;8239;48.594;8.598;2023-04-08T01:40:46;5.80;;;4.33;;
16262;SDS011;8239;48.594;8.598;2023-04-08T01:43:16;6.23;;;4.73;;
16262;SDS011;8239;48.594;8.598;2023-04-08T01:45:44;4.90;;;4.40;;
16262;SDS011;8239;48.594;8.598;2023-04-08T01:48:13;5.77;;;4.80;;
16262;SDS011;8239;48.594;8.598;2023-04-08T01:50:41;5.43;;;4.50;;
16262;SDS011;8239;48.594;8.598;2023-04-08T01:53:10;6.63;;;5.00;;
16262;SDS011;8239;48.594;8.598;2023-04-08T01:55:37;5.57;;;4.77;;
16262;SDS011;8239;48.594;8.598;2023-04-08T01:58:07;7.27;;;5.17;;
16262;SDS011;8239;48.594;8.598;2023-04-08T02:00:39;8.37;;;6.60;;
16262;SDS011;8239;48.594;8.598;2023-04-08T02:03:07;9.07;;;6.63;;
16262;SDS011;8239;48.594;8.598;2023-04-08T02:05:37;7.67;;;5.90;;
16262;SDS011;8239;48.594;8.598;2023-04-08T02:08:05;7.97;;;5.80;;
16262;SDS011;8239;48.594;8.598;2023-04-08T02:10:32;5.53;;;4.77;;
16262;SDS011;8239;48.594;8.598;2023-04-08T02:12:59;7.60;;;5.70;;
16262;SDS011;8239;48.594;8.598;2023-04-08T02:15:27;7.43;;;5.73;;
16262;SDS011;8239;48.594;8.598;2023-04-08T02:18:02;7.33;;;5.87;;
16262;SDS011;8239;48.594;8.598;2023-04-08T02:20:36;6.20;;;5.20;;
16262;SDS011;8239;48.594;8.598;2023-04-08T02:23:06;6.53;;;5.43;;
16262;SDS011;8239;48.594;8.598;2023-04-08T02:25:39;6.63;;;4.90;;
16262;SDS011;8239;48.594;8.598;2023-04-08T02:28:08;6.83;;;5.30;;
16262;SDS011;8239;48.594;8.598;2023-04-08T02:30:36;10.53;;;7.50;;
16262;SDS011;8239;48.594;8.598;2023-04-08T02:33:09;17.63;;;10.73;;
16262;SDS011;8239;48.594;8.598;2023-04-08T02:35:39;17.87;;;11.93;;
16262;SDS011;8239;48.594;8.598;2023-04-08T02:38:07;19.73;;;12.27;;
16262;SDS011;8239;48.594;8.598;2023-04-08T02:40:35;18.40;;;11.67;;
16262;SDS011;8239;48.594;8.598;2023-04-08T02:43:03;17.60;;;11.40;;
16262;SDS011;8239;48.594;8.598;2023-04-08T02:45:31;18.77;;;11.73;;
16262;SDS011;8239;48.594;8.598;2023-04-08T02:48:00;15.17;;;10.43;;
16262;SDS011;8239;48.594;8.598;2023-04-08T02:50:29;15.50;;;10.43;;
16262;SDS011;8239;48.594;8.598;2023-04-08T02:52:56;16.93;;;10.53;;
16262;SDS011;8239;48.594;8.598;2023-04-08T02:55:23;15.87;;;10.77;;
16262;SDS011;8239;48.594;8.598;2023-04-08T02:57:50;18.00;;;11.40;;
16262;SDS011;8239;48.594;8.598;2023-04-08T03:00:17;18.47;;;11.77;;
16262;SDS011;8239;48.594;8.598;2023-04-08T03:02:44;13.60;;;9.53;;
16262;SDS011;8239;48.594;8.598;2023-04-08T03:05:11;12.93;;;8.80;;
16262;SDS011;8239;48.594;8.598;2023-04-08T03:07:41;12.03;;;8.53;;
16262;SDS011;8239;48.594;8.598;2023-04-08T03:10:09;10.73;;;8.10;;
16262;SDS011;8239;48.594;8.598;2023-04-08T03:12:36;12.10;;;8.20;;
16262;SDS011;8239;48.594;8.598;2023-04-08T03:15:03;12.97;;;9.10;;
16262;SDS011;8239;48.594;8.598;2023-04-08T03:17:31;9.60;;;6.30;;
16262;SDS011;8239;48.594;8.598;2023-04-08T03:19:58;8.40;;;6.40;;
16262;SDS011;8239;48.594;8.598;2023-04-08T03:22:26;8.37;;;6.20;;
16262;SDS011;8239;48.594;8.598;2023-04-08T03:24:54;7.73;;;5.43;;
16262;SDS011;8239;48.594;8.598;2023-04-08T03:27:21;7.87;;;5.40;;
16262;SDS011;8239;48.594;8.598;2023-04-08T03:29:48;9.20;;;6.33;;
16262;SDS011;8239;48.594;8.598;2023-04-08T03:32:17;6.97;;;5.50;;
16262;SDS011;8239;48.594;8.598;2023-04-08T03:34:44;11.57;;;7.30;;
16262;SDS011;8239;48.594;8.598;2023-04-08T03:37:11;10.30;;;7.40;;
16262;SDS011;8239;48.594;8.598;2023-04-08T03:39:38;11.20;;;7.83;;
16262;SDS011;8239;48.594;8.598;2023-04-08T03:42:06;14.93;;;8.80;;
16262;SDS011;8239;48.594;8.598;2023-04-08T03:44:33;11.23;;;7.80;;
16262;SDS011;8239;48.594;8.598;2023-04-08T03:47:00;11.87;;;7.80;;
16262;SDS011;8239;48.594;8.598;2023-04-08T03:49:27;11.10;;;7.80;;
16262;SDS011;8239;48.594;8.598;2023-04-08T03:51:54;12.93;;;8.27;;
16262;SDS011;8239;48.594;8.598;2023-04-08T03:54:21;11.90;;;8.30;;
16262;SDS011;8239;48.594;8.598;2023-04-08T03:56:48;12.90;;;8.73;;
16262;SDS011;8239;48.594;8.598;2023-04-08T03:59:17;11.87;;;7.90;;
16262;SDS011;8239;48.594;8.598;2023-04-08T04:01:44;13.20;;;9.07;;
16262;SDS011;8239;48.594;8.598;2023-04-08T04:04:11;13.43;;;9.70;;
16262;SDS011;8239;48.594;8.598;2023-04-08T04:06:38;15.50;;;10.30;;
16262;SDS011;8239;48.594;8.598;2023-04-08T04:09:06;17.53;;;10.80;;
16262;SDS011;8239;48.594;8.598;2023-04-08T04:11:33;18.03;;;11.03;;
16262;SDS011;8239;48.594;8.598;2023-04-08T04:14:00;17.90;;;11.27;;
16262;SDS011;8239;48.594;8.598;2023-04-08T04:16:28;15.80;;;10.87;;
16262;SDS011;8239;48.594;8.598;2023-04-08T04:18:55;16.53;;;10.40;;
16262;SDS011;8239;48.594;8.598;2023-04-08T04:21:22;16.20;;;10.60;;
16262;SDS011;8239;48.594;8.598;2023-04-08T04:23:49;14.77;;;11.23;;
16262;SDS011;8239;48.594;8.598;2023-04-08T04:26:16;16.47;;;10.93;;
16262;SDS011;8239;48.594;8.598;2023-04-08T04:28:43;14.00;;;9.43;;
16262;SDS011;8239;48.594;8.598;2023-04-08T04:31:16;10.63;;;8.17;;
16262;SDS011;8239;48.594;8.598;2023-04-08T04:33:46;10.43;;;7.60;;
16262;SDS011;8239;48.594;8.598;2023-04-08T04:36:13;10.17;;;7.57;;
16262;SDS011;8239;48.594;8.598;2023-04-08T04:38:40;9.83;;;7.10;;
16262;SDS011;8239;48.594;8.598;2023-04-08T04:41:08;10.90;;;7.33;;
16262;SDS011;8239;48.594;8.598;2023-04-08T04:43:35;9.80;;;7.40;;
16262;SDS011;8239;48.594;8.598;2023-04-08T04:46:02;8.97;;;6.90;;
16262;SDS011;8239;48.594;8.598;2023-04-08T04:48:32;8.40;;;6.70;;
16262;SDS011;8239;48.594;8.598;2023-04-08T04:51:01;8.57;;;6.63;;
16262;SDS011;8239;48.594;8.598;2023-04-08T04:53:28;9.00;;;6.93;;
16262;SDS011;8239;48.594;8.598;2023-04-08T04:55:55;9.73;;;7.33;;
16262;SDS011;8239;48.594;8.598;2023-04-08T04:58:22;8.37;;;6.60;;
16262;SDS011;8239;48.594;8.598;2023-04-08T05:00:50;9.23;;;6.90;;
16262;SDS011;8239;48.594;8.598;2023-04-08T05:03:16;9.13;;;6.50;;
16262;SDS011;8239;48.594;8.598;2023-04-08T05:05:44;9.83;;;7.40;;
16262;SDS011;8239;48.594;8.598;2023-04-08T05:08:17;9.67;;;7.50;;
16262;SDS011;8239;48.594;8.598;2023-04-08T05:10:43;9.77;;;7.37;;
16262;SDS011;8239;48.594;8.598;2023-04-08T05:13:10;11.07;;;8.20;;
16262;SDS011;8239;48.594;8.598;2023-04-08T05:15:38;11.07;;;8.33;;
16262;SDS011;8239;48.594;8.598;2023-04-08T05:18:05;13.07;;;9.07;;
16262;SDS011;8239;48.594;8.598;2023-04-08T05:20:32;13.33;;;9.13;;
16262;SDS011;8239;48.594;8.598;2023-04-08T05:22:59;12.83;;;9.67;;
16262;SDS011;8239;48.594;8.598;2023-04-08T05:25:27;13.00;;;9.57;;
16262;SDS011;8239;48.594;8.598;2023-04-08T05:27:55;12.13;;;8.90;;
16262;SDS011;8239;48.594;8.598;2023-04-08T05:30:22;12.30;;;8.80;;
16262;SDS011;8239;48.594;8.598;2023-04-08T05:32:49;10.10;;;8.13;;
16262;SDS011;8239;48.594;8.598;2023-04-08T05:35:16;7.43;;;6.10;;
16262;SDS011;8239;48.594;8.598;2023-04-08T05:37:43;7.90;;;6.83;;
16262;SDS011;8239;48.594;8.598;2023-04-08T05:40:10;7.73;;;6.10;;
16262;SDS011;8239;48.594;8.598;2023-04-08T05:42:39;15.77;;;11.00;;
16262;SDS011;8239;48.594;8.598;2023-04-08T05:45:07;14.70;;;11.03;;
16262;SDS011;8239;48.594;8.598;2023-04-08T05:47:34;14.73;;;11.17;;
16262;SDS011;8239;48.594;8.598;2023-04-08T05:50:01;11.13;;;8.57;;
16262;SDS011;8239;48.594;8.598;2023-04-08T05:52:28;7.80;;;7.00;;
16262;SDS011;8239;48.594;8.598;2023-04-08T05:54:55;4.57;;;4.10;;
16262;SDS011;8239;48.594;8.598;2023-04-08T05:57:22;4.17;;;3.67;;
16262;SDS011;8239;48.594;8.598;2023-04-08T05:59:51;4.57;;;4.17;;
16262;SDS011;8239;48.594;8.598;2023-04-08T06:02:18;4.13;;;3.73;;
16262;SDS011;8239;48.594;8.598;2023-04-08T06:04:45;7.30;;;4.10;;
16262;SDS011;8239;48.594;8.598;2023-04-08T06:07:12;5.10;;;4.70;;
16262;SDS011;8239;48.594;8.598;2023-04-08T06:09:39;11.47;;;4.00;;
16262;SDS011;8239;48.594;8.598;2023-04-08T06:12:06;4.60;;;3.63;;
16262;SDS011;8239;48.594;8.598;2023-04-08T06:14:33;4.17;;;3.77;;
16262;SDS011;8239;48.594;8.598;2023-04-08T06:17:01;4.50;;;4.03;;
16262;SDS011;8239;48.594;8.598;2023-04-08T06:19:29;4.63;;;4.23;;
16262;SDS011;8239;48.594;8.598;2023-04-08T06:21:56;7.90;;;7.10;;
16262;SDS011;8239;48.594;8.598;2023-04-08T06:24:24;9.40;;;8.50;;
16262;SDS011;8239;48.594;8.598;2023-04-08T06:26:51;5.27;;;4.57;;
16262;SDS011;8239;48.594;8.598;2023-04-08T06:29:19;4.80;;;4.40;;
16262;SDS011;8239;48.594;8.598;2023-04-08T06:31:47;5.13;;;4.60;;
16262;SDS011;8239;48.594;8.598;2023-04-08T06:34:15;6.60;;;4.20;;
16262;SDS011;8239;48.594;8.598;2023-04-08T06:36:42;4.53;;;4.13;;
16262;SDS011;8239;48.594;8.598;2023-04-08T06:39:09;5.00;;;4.50;;
16262;SDS011;8239;48.594;8.598;2023-04-08T06:41:37;4.83;;;4.33;;
16262;SDS011;8239;48.594;8.598;2023-04-08T06:44:04;4.40;;;4.00;;
16262;SDS011;8239;48.594;8.598;2023-04-08T06:46:31;3.90;;;3.60;;
16262;SDS011;8239;48.594;8.598;2023-04-08T06:48:58;5.00;;;4.20;;
16262;SDS011;8239;48.594;8.598;2023-04-08T06:51:26;4.80;;;4.40;;
16262;SDS011;8239;48.594;8.598;2023-04-08T06:53:53;4.90;;;3.80;;
16262;SDS011;8239;48.594;8.598;2023-04-08T06:56:20;4.93;;;3.73;;
16262;SDS011;8239;48.594;8.598;2023-04-08T06:58:50;4.10;;;3.70;;
16262;SDS011;8239;48.594;8.598;2023-04-08T07:01:17;4.17;;;3.63;;
16262;SDS011;8239;48.594;8.598;2023-04-08T07:03:44;4.37;;;3.90;;
16262;SDS011;8239;48.594;8.598;2023-04-08T07:06:11;3.87;;;3.47;;
16262;SDS011;8239;48.594;8.598;2023-04-08T07:08:39;4.30;;;3.87;;
16262;SDS011;8239;48.594;8.598;2023-04-08T07:11:07;4.47;;;4.07;;
16262;SDS011;8239;48.594;8.598;2023-04-08T07:13:34;5.37;;;4.87;;
16262;SDS011;8239;48.594;8.598;2023-04-08T07:16:01;5.83;;;5.33;;
16262;SDS011;8239;48.594;8.598;2023-04-08T07:18:28;6.13;;;5.47;;
16262;SDS011;8239;48.594;8.598;2023-04-08T07:20:56;7.27;;;6.00;;
16262;SDS011;8239;48.594;8.598;2023-04-08T07:23:25;6.80;;;6.10;;
16262;SDS011;8239;48.594;8.598;2023-04-08T07:25:53;6.90;;;6.20;;
16262;SDS011;8239;48.594;8.598;2023-04-08T07:28:20;9.20;;;6.30;;
16262;SDS011;8239;48.594;8.598;2023-04-08T07:30:47;7.57;;;6.77;;
16262;SDS011;8239;48.594;8.598;2023-04-08T07:33:14;6.97;;;6.27;;
16262;SDS011;8239;48.594;8.598;2023-04-08T07:35:41;7.40;;;6.70;;
16262;SDS011;8239;48.594;8.598;2023-04-08T07:38:08;8.47;;;7.20;;
16262;SDS011;8239;48.594;8.598;2023-04-08T07:40:37;7.57;;;6.77;;
16262;SDS011;8239;48.594;8.598;2023-04-08T07:43:05;7.97;;;6.80;;
16262;SDS011;8239;48.594;8.598;2023-04-08T07:45:33;8.03;;;6.90;;
16262;SDS011;8239;48.594;8.598;2023-04-08T07:48:00;7.60;;;6.30;;
16262;SDS011;8239;48.594;8.598;2023-04-08T07:50:27;7.23;;;6.40;;
16262;SDS011;8239;48.594;8.598;2023-04-08T07:52:54;7.67;;;6.63;;
16262;SDS011;8239;48.594;8.598;2023-04-08T07:55:21;6.97;;;6.27;;
16262;SDS011;8239;48.594;8.598;2023-04-08T07:57:48;8.00;;;6.27;;
16262;SDS011;8239;48.594;8.598;2023-04-08T08:00:17;7.33;;;6.53;;
16262;SDS011;8239;48.594;8.598;2023-04-08T08:02:45;7.00;;;6.23;;
16262;SDS011;8239;48.594;8.598;2023-04-08T08:05:13;7.17;;;6.47;;
16262;SDS011;8239;48.594;8.598;2023-04-08T08:07:40;6.60;;;5.90;;
16262;SDS011;8239;48.594;8.598;2023-04-08T08:10:07;6.87;;;5.80;;
16262;SDS011;8239;48.594;8.598;2023-04-08T08:12:35;6.37;;;5.77;;
16262;SDS011;8239;48.594;8.598;2023-04-08T08:15:02;7.63;;;6.83;;
16262;SDS011;8239;48.594;8.598;2023-04-08T08:17:31;8.47;;;7.47;;
16262;SDS011;8239;48.594;8.598;2023-04-08T08:19:58;8.90;;;7.37;;
16262;SDS011;8239;48.594;8.598;2023-04-08T08:22:25;10.07;;;8.70;;
16262;SDS011;8239;48.594;8.598;2023-04-08T08:24:55;10.03;;;8.50;;
16262;SDS011;8239;48.594;8.598;2023-04-08T08:27:23;11.43;;;9.27;;
16262;SDS011;8239;48.594;8.598;2023-04-08T08:29:50;9.70;;;8.70;;
16262;SDS011;8239;48.594;8.598;2023-04-08T08:32:18;10.37;;;8.90;;
16262;SDS011;8239;48.594;8.598;2023-04-08T08:34:46;10.63;;;9.37;;
16262;SDS011;8239;48.594;8.598;2023-04-08T08:37:13;10.40;;;9.10;;
16262;SDS011;8239;48.594;8.598;2023-04-08T08:39:40;10.93;;;9.27;;
16262;SDS011;8239;48.594;8.598;2023-04-08T08:42:17;9.80;;;8.80;;
16262;SDS011;8239;48.594;8.598;2023-04-08T08:44:45;10.70;;;9.10;;
16262;SDS011;8239;48.594;8.598;2023-04-08T08:47:13;11.93;;;9.47;;
16262;SDS011;8239;48.594;8.598;2023-04-08T08:49:40;10.33;;;9.10;;
16262;SDS011;8239;48.594;8.598;2023-04-08T08:52:09;10.30;;;8.80;;
16262;SDS011;8239;48.594;8.598;2023-04-08T08:54:36;12.30;;;9.83;;
16262;SDS011;8239;48.594;8.598;2023-04-08T08:57:03;11.80;;;9.13;;
16262;SDS011;8239;48.594;8.598;2023-04-08T08:59:31;9.93;;;8.93;;
16262;SDS011;8239;48.594;8.598;2023-04-08T09:01:59;9.55;;;8.52;;
16262;SDS011;8239;48.594;8.598;2023-04-08T09:04:26;10.23;;;9.23;;
16262;SDS011;8239;48.594;8.598;2023-04-08T09:07:07;9.85;;;8.85;;
16262;SDS011;8239;48.594;8.598;2023-04-08T09:09:47;10.73;;;9.27;;
16262;SDS011;8239;48.594;8.598;2023-04-08T09:12:15;9.75;;;8.82;;
16262;SDS011;8239;48.594;8.598;2023-04-08T09:14:42;10.00;;;9.10;;
16262;SDS011;8239;48.594;8.598;2023-04-08T09:20:04;9.45;;;8.55;;
16262;SDS011;8239;48.594;8.598;2023-04-08T09:25:22;8.85;;;8.05;;
16262;SDS011;8239;48.594;8.598;2023-04-08T09:27:50;10.18;;;9.07;;
16262;SDS011;8239;48.594;8.598;2023-04-08T09:30:18;10.65;;;9.60;;
16262;SDS011;8239;48.594;8.598;2023-04-08T09:32:47;10.23;;;9.23;;
16262;SDS011;8239;48.594;8.598;2023-04-08T09:35:18;10.43;;;9.52;;
16262;SDS011;8239;48.594;8.598;2023-04-08T09:37:46;10.45;;;9.55;;
16262;SDS011;8239;48.594;8.598;2023-04-08T09:40:15;10.88;;;9.77;;
16262;SDS011;8239;48.594;8.598;2023-04-08T09:42:43;10.15;;;9.20;;
16262;SDS011;8239;48.594;8.598;2023-04-08T09:45:12;10.68;;;9.68;;
16262;SDS011;8239;48.594;8.598;2023-04-08T09:47:41;9.60;;;8.73;;
16262;SDS011;8239;48.594;8.598;2023-04-08T09:50:23;10.48;;;9.48;;
16262;SDS011;8239;48.594;8.598;2023-04-08T09:52:56;10.40;;;9.40;;
16262;SDS011;8239;48.594;8.598;2023-04-08T09:55:32;10.60;;;9.50;;
16262;SDS011;8239;48.594;8.598;2023-04-08T09:58:03;10.73;;;9.30;;
16262;SDS011;8239;48.594;8.598;2023-04-08T10:00:37;9.95;;;8.95;;
16262;SDS011;8239;48.594;8.598;2023-04-08T10:03:09;10.27;;;9.30;;
16262;SDS011;8239;48.594;8.598;2023-04-08T10:05:41;10.65;;;9.63;;
16262;SDS011;8239;48.594;8.598;2023-04-08T10:08:11;9.65;;;8.75;;
16262;SDS011;8239;48.594;8.598;2023-04-08T10:10:48;10.80;;;9.70;;
16262;SDS011;8239;48.594;8.598;2023-04-08T10:13:20;10.60;;;9.60;;
16262;SDS011;8239;48.594;8.598;2023-04-08T10:15:53;10.85;;;9.85;;
16262;SDS011;8239;48.594;8.598;2023-04-08T10:18:51;10.45;;;9.45;;
16262;SDS011;8239;48.594;8.598;2023-04-08T10:21:36;11.05;;;9.98;;
16262;SDS011;8239;48.594;8.598;2023-04-08T10:24:07;11.18;;;10.07;;
16262;SDS011;8239;48.594;8.598;2023-04-08T10:26:37;10.73;;;9.73;;
16262;SDS011;8239;48.594;8.598;2023-04-08T10:31:57;10.50;;;9.40;;
16262;SDS011;8239;48.594;8.598;2023-04-08T10:34:27;11.25;;;9.95;;
16262;SDS011;8239;48.594;8.598;2023-04-08T10:36:55;10.45;;;9.55;;
16262;SDS011;8239;48.594;8.598;2023-04-08T10:39:26;10.35;;;9.30;;
16262;SDS011;8239;48.594;8.598;2023-04-08T10:41:54;10.30;;;9.40;;
16262;SDS011;8239;48.594;8.598;2023-04-08T10:44:22;10.15;;;9.25;;
16262;SDS011;8239;48.594;8.598;2023-04-08T10:46:50;10.38;;;9.30;;
16262;SDS011;8239;48.594;8.598;2023-04-08T10:49:18;10.60;;;9.60;;
16262;SDS011;8239;48.594;8.598;2023-04-08T10:51:46;9.63;;;8.73;;
16262;SDS011;8239;48.594;8.598;2023-04-08T10:54:15;9.80;;;8.80;;
16262;SDS011;8239;48.594;8.598;2023-04-08T10:56:43;11.45;;;10.25;;
16262;SDS011;8239;48.594;8.598;2023-04-08T10:59:13;9.50;;;8.60;;
16262;SDS011;8239;48.594;8.598;2023-04-08T11:01:45;9.57;;;8.65;;
16262;SDS011;8239;48.594;8.598;2023-04-08T11:04:12;9.85;;;8.85;;
16262;SDS011;8239;48.594;8.598;2023-04-08T11:06:41;9.63;;;8.73;;
16262;SDS011;8239;48.594;8.598;2023-04-08T11:09:09;9.90;;;9.00;;
16262;SDS011;8239;48.594;8.598;2023-04-08T11:11:36;9.65;;;8.75;;
16262;SDS011;8239;48.594;8.598;2023-04-08T11:14:03;10.35;;;9.35;;
16262;SDS011;8239;48.594;8.598;2023-04-08T11:16:32;9.98;;;8.98;;
16262;SDS011;8239;48.594;8.598;2023-04-08T11:19:01;10.05;;;9.05;;
16262;SDS011;8239;48.594;8.598;2023-04-08T11:21:30;10.38;;;8.68;;
16262;SDS011;8239;48.594;8.598;2023-04-08T11:23:57;9.48;;;8.57;;
16262;SDS011;8239;48.594;8.598;2023-04-08T11:26:24;9.95;;;8.95;;
16262;SDS011;8239;48.594;8.598;2023-04-08T11:28:53;9.68;;;8.68;;
16262;SDS011;8239;48.594;8.598;2023-04-08T11:31:21;8.95;;;8.15;;
16262;SDS011;8239;48.594;8.598;2023-04-08T11:33:51;9.50;;;8.60;;
16262;SDS011;8239;48.594;8.598;2023-04-08T11:36:20;9.52;;;8.52;;
16262;SDS011;8239;48.594;8.598;2023-04-08T11:38:47;9.18;;;8.38;;
16262;SDS011;8239;48.594;8.598;2023-04-08T11:41:14;9.32;;;8.43;;
16262;SDS011;8239;48.594;8.598;2023-04-08T11:43:54;9.52;;;8.63;;
16262;SDS011;8239;48.594;8.598;2023-04-08T11:46:22;9.48;;;8.57;;
16262;SDS011;8239;48.594;8.598;2023-04-08T11:48:58;9.27;;;8.45;;
16262;SDS011;8239;48.594;8.598;2023-04-08T11:51:26;9.70;;;8.80;;
16262;SDS011;8239;48.594;8.598;2023-04-08T11:53:53;9.50;;;8.50;;
16262;SDS011;8239;48.594;8.598;2023-04-08T11:56:20;9.37;;;8.47;;
16262;SDS011;8239;48.594;8.598;2023-04-08T11:58:48;10.03;;;9.13;;
16262;SDS011;8239;48.594;8.598;2023-04-08T12:01:16;9.63;;;8.73;;
16262;SDS011;8239;48.594;8.598;2023-04-08T12:03:53;10.37;;;9.27;;
16262;SDS011;8239;48.594;8.598;2023-04-08T12:06:22;10.20;;;9.20;;
16262;SDS011;8239;48.594;8.598;2023-04-08T12:08:52;8.73;;;7.93;;
16262;SDS011;8239;48.594;8.598;2023-04-08T12:11:19;10.30;;;8.70;;
16262;SDS011;8239;48.594;8.598;2023-04-08T12:13:47;9.57;;;8.33;;
16262;SDS011;8239;48.594;8.598;2023-04-08T12:16:15;9.87;;;8.83;;
16262;SDS011;8239;48.594;8.598;2023-04-08T12:18:42;10.00;;;9.00;;
16262;SDS011;8239;48.594;8.598;2023-04-08T12:21:09;9.80;;;8.80;;
16262;SDS011;8239;48.594;8.598;2023-04-08T12:23:38;9.37;;;8.50;;
16262;SDS011;8239;48.594;8.598;2023-04-08T12:26:05;9.40;;;8.50;;
16262;SDS011;8239;48.594;8.598;2023-04-08T12:28:33;9.37;;;8.37;;
16262;SDS011;8239;48.594;8.598;2023-04-08T12:31:00;11.23;;;9.63;;
16262;SDS011;8239;48.594;8.598;2023-04-08T12:33:28;11.27;;;10.17;;
16262;SDS011;8239;48.594;8.598;2023-04-08T12:35:55;11.63;;;9.80;;
16262;SDS011;8239;48.594;8.598;2023-04-08T12:38:23;10.57;;;9.60;;
16262;SDS011;8239;48.594;8.598;2023-04-08T12:40:52;10.23;;;9.23;;
16262;SDS011;8239;48.594;8.598;2023-04-08T12:43:20;11.87;;;9.67;;
16262;SDS011;8239;48.594;8.598;2023-04-08T12:45:48;11.27;;;10.07;;
16262;SDS011;8239;48.594;8.598;2023-04-08T12:48:15;10.97;;;9.87;;
16262;SDS011;8239;48.594;8.598;2023-04-08T12:50:42;10.83;;;9.73;;
16262;SDS011;8239;48.594;8.598;2023-04-08T12:53:09;10.50;;;9.43;;
16262;SDS011;8239;48.594;8.598;2023-04-08T12:55:36;10.50;;;9.50;;
16262;SDS011;8239;48.594;8.598;2023-04-08T12:58:05;10.00;;;9.00;;
16262;SDS011;8239;48.594;8.598;2023-04-08T13:00:32;10.00;;;9.00;;
16262;SDS011;8239;48.594;8.598;2023-04-08T13:03:01;10.60;;;9.60;;
16262;SDS011;8239;48.594;8.598;2023-04-08T13:05:30;10.90;;;9.87;;
16262;SDS011;8239;48.594;8.598;2023-04-08T13:07:57;11.03;;;9.93;;
16262;SDS011;8239;48.594;8.598;2023-04-08T13:10:24;11.10;;;10.00;;
16262;SDS011;8239;48.594;8.598;2023-04-08T13:12:51;10.80;;;9.73;;
16262;SDS011;8239;48.594;8.598;2023-04-08T13:15:20;10.43;;;9.43;;
16262;SDS011;8239;48.594;8.598;2023-04-08T13:17:47;11.23;;;10.10;;
16262;SDS011;8239;48.594;8.598;2023-04-08T13:20:14;11.43;;;10.00;;
16262;SDS011;8239;48.594;8.598;2023-04-08T13:22:41;10.57;;;9.50;;
16262;SDS011;8239;48.594;8.598;2023-04-08T13:25:08;10.70;;;9.37;;
16262;SDS011;8239;48.594;8.598;2023-04-08T13:27:35;11.87;;;9.53;;
16262;SDS011;8239;48.594;8.598;2023-04-08T13:30:02;10.30;;;9.23;;
16262;SDS011;8239;48.594;8.598;2023-04-08T13:32:31;10.93;;;9.83;;
16262;SDS011;8239;48.594;8.598;2023-04-08T13:34:58;11.03;;;9.40;;
16262;SDS011;8239;48.594;8.598;2023-04-08T13:37:25;11.07;;;10.00;;
16262;SDS011;8239;48.594;8.598;2023-04-08T13:39:52;11.57;;;10.27;;
16262;SDS011;8239;48.594;8.598;2023-04-08T13:42:19;11.40;;;10.23;;
16262;SDS011;8239;48.594;8.598;2023-04-08T13:44:46;12.63;;;10.60;;
16262;SDS011;8239;48.594;8.598;2023-04-08T13:47:13;11.23;;;10.03;;
16262;SDS011;8239;48.594;8.598;2023-04-08T13:49:42;13.23;;;11.33;;
16262;SDS011;8239;48.594;8.598;2023-04-08T13:52:09;13.50;;;11.50;;
16262;SDS011;8239;48.594;8.598;2023-04-08T13:54:36;11.83;;;10.57;;
16262;SDS011;8239;48.594;8.598;2023-04-08T13:57:03;11.40;;;10.30;;
16262;SDS011;8239;48.594;8.598;2023-04-08T13:59:30;11.37;;;10.17;;
16262;SDS011;8239;48.594;8.598;2023-04-08T14:01:57;13.07;;;10.53;;
16262;SDS011;8239;48.594;8.598;2023-04-08T14:04:24;12.10;;;10.80;;
16262;SDS011;8239;48.594;8.598;2023-04-08T14:06:53;11.60;;;10.40;;
16262;SDS011;8239;48.594;8.598;2023-04-08T14:09:22;11.27;;;10.07;;
16262;SDS011;8239;48.594;8.598;2023-04-08T14:11:50;10.53;;;9.40;;
16262;SDS011;8239;48.594;8.598;2023-04-08T14:14:16;10.63;;;9.53;;
16262;SDS011;8239;48.594;8.598;2023-04-08T14:16:43;10.53;;;9.53;;
16262;SDS011;8239;48.594;8.598;2023-04-08T14:19:11;11.40;;;10.20;;
16262;SDS011;8239;48.594;8.598;2023-04-08T14:21:39;10.67;;;9.60;;
16262;SDS011;8239;48.594;8.598;2023-04-08T14:24:07;11.10;;;9.60;;
16262;SDS011;8239;48.594;8.598;2023-04-08T14:26:34;11.37;;;10.27;;
16262;SDS011;8239;48.594;8.598;2023-04-08T14:29:02;13.00;;;10.93;;
16262;SDS011;8239;48.594;8.598;2023-04-08T14:31:30;11.57;;;10.37;;
16262;SDS011;8239;48.594;8.598;2023-04-08T14:33:57;10.30;;;9.20;;
16262;SDS011;8239;48.594;8.598;2023-04-08T14:36:25;11.57;;;9.70;;
16262;SDS011;8239;48.594;8.598;2023-04-08T14:38:53;10.13;;;9.07;;
16262;SDS011;8239;48.594;8.598;2023-04-08T14:41:22;13.13;;;9.83;;
16262;SDS011;8239;48.594;8.598;2023-04-08T14:43:50;12.10;;;10.03;;
16262;SDS011;8239;48.594;8.598;2023-04-08T14:46:18;11.67;;;9.87;;
16262;SDS011;8239;48.594;8.598;2023-04-08T14:48:45;11.30;;;9.70;;
16262;SDS011;8239;48.594;8.598;2023-04-08T14:51:13;12.60;;;10.30;;
16262;SDS011;8239;48.594;8.598;2023-04-08T14:53:40;12.20;;;10.60;;
16262;SDS011;8239;48.594;8.598;2023-04-08T14:56:07;11.90;;;10.60;;
16262;SDS011;8239;48.594;8.598;2023-04-08T14:58:36;11.60;;;10.40;;
16262;SDS011;8239;48.594;8.598;2023-04-08T15:01:04;10.80;;;9.70;;
16262;SDS011;8239;48.594;8.598;2023-04-08T15:03:31;9.90;;;8.90;;
16262;SDS011;8239;48.594;8.598;2023-04-08T15:05:59;10.07;;;9.07;;
16262;SDS011;8239;48.594;8.598;2023-04-08T15:08:26;11.43;;;10.03;;